This is the latest recevied weather packets stored in our database for station/object HB9TJR-3. If no packets are shown the sender has not sent any weather packets the latest 10 day(s).
| Time | Temp. | Humidity | Pressure | Rain* | Wind** | Luminosity | Snow |
|---|---|---|---|---|---|---|---|
| 1787602531 | 14.44° C | 87% | 865 hPa | 0 mm | - | - | - |
| 1787601570 | 16.11° C | 79% | 865.3 hPa | 0 mm | - | - | - |
| 1787600611 | 16.11° C | 77% | 864.3 hPa | 0 mm | - | - | - |
| 1787599651 | 16.67° C | 76% | 864.5 hPa | 0 mm | - | - | - |
| 1787598691 | 16.67° C | 73% | 864.6 hPa | 0 mm | - | - | - |
| 1787597731 | 17.22° C | 73% | 864.1 hPa | 0 mm | - | - | - |
| 1787596771 | 17.22° C | 72% | 863.7 hPa | 0 mm | - | - | - |
| 1787595811 | 17.22° C | 72% | 863.9 hPa | 0 mm | - | - | - |
| 1787594851 | 18.33° C | 71% | 863.8 hPa | 0 mm | - | - | - |
| 1787593891 | 18.33° C | 70% | 864.2 hPa | 0 mm | - | - | - |
| 1787592931 | 18.33° C | 68% | 864.5 hPa | 0 mm | - | - | - |
| 1787591970 | 18.33° C | 67% | 864.7 hPa | 0 mm | - | - | - |
| 1787591011 | 18.89° C | 65% | 865 hPa | 0 mm | - | - | - |
| 1787590050 | 18.89° C | 65% | 865.1 hPa | 0 mm | - | - | - |
| 1787589091 | 18.89° C | 65% | 865 hPa | 0 mm | - | - | - |
| 1787588163 | 18.89° C | 63% | 865.2 hPa | 0 mm | - | - | - |
| 1787588131 | 18.89° C | 63% | 865.2 hPa | 0 mm | - | - | - |
| 1787587171 | 18.89° C | 63% | 865.2 hPa | 0 mm | - | - | - |
| 1787586210 | 19.44° C | 63% | 865.3 hPa | 0 mm | - | - | - |
| 1787585250 | 19.44° C | 64% | 865.6 hPa | 0 mm | - | - | - |
| 1787584294 | 19.44° C | 62% | 866 hPa | 0 mm | - | - | - |
| 1787584290 | 19.44° C | 62% | 866 hPa | 0 mm | - | - | - |
| 1787583334 | 19.44° C | 62% | 866.4 hPa | 0 mm | - | - | - |
| 1787583331 | 19.44° C | 62% | 866.4 hPa | 0 mm | - | - | - |
| 1787582374 | 19.44° C | 63% | 866.6 hPa | 0 mm | - | - | - |
* Rain latest hour (hover to see other rain measurements)
** Current wind speed in m/s (hover to see current wind gust speed)